Terminal Aerodrome Forecast
Issued by NWS Binghamton, NY

Home | Current Version | Previous Version | Text Only | Print | Product List | Glossary On
Versions: 1 2 3 4 5 6 7 8 9 10 11 12 13 14 15 16 17 18
310
FTUS41 KBGM 240543
TAFSYR
TAF
KSYR 240543Z 2406/2506 28015G25KT 1 1/2SM -SHSN OVC015
      TEMPO 2406/2410 3SM -SHSN OVC025
     FM241500 29012G22KT P6SM -SHSN OVC025
     FM250300 31008KT P6SM FEW025 OVC250=

USA.gov is the U.S. government's official web portal to all federal, state and local government web resources and services.